sensor_id;sensor_type;location;lat;lon;timestamp;temperature;humidity
15288;DHT22;7745;48.708;9.026;2023-10-13T00:01:55;17.80;99.90
15288;DHT22;7745;48.708;9.026;2023-10-13T00:04:24;17.70;99.90
15288;DHT22;7745;48.708;9.026;2023-10-13T00:06:53;17.70;99.90
15288;DHT22;7745;48.708;9.026;2023-10-13T00:09:22;17.70;99.90
15288;DHT22;7745;48.708;9.026;2023-10-13T00:11:51;17.70;99.90
15288;DHT22;7745;48.708;9.026;2023-10-13T00:14:18;17.60;99.90
15288;DHT22;7745;48.708;9.026;2023-10-13T00:16:46;17.60;99.90
15288;DHT22;7745;48.708;9.026;2023-10-13T00:19:27;17.50;99.90
15288;DHT22;7745;48.708;9.026;2023-10-13T00:21:56;17.50;99.90
15288;DHT22;7745;48.708;9.026;2023-10-13T00:24:34;17.40;99.90
15288;DHT22;7745;48.708;9.026;2023-10-13T00:27:08;17.30;99.90
15288;DHT22;7745;48.708;9.026;2023-10-13T00:29:49;17.30;99.90
15288;DHT22;7745;48.708;9.026;2023-10-13T00:32:16;17.40;99.90
15288;DHT22;7745;48.708;9.026;2023-10-13T00:34:48;17.20;99.90
15288;DHT22;7745;48.708;9.026;2023-10-13T00:37:22;17.10;99.90
15288;DHT22;7745;48.708;9.026;2023-10-13T00:39:54;17.10;99.90
15288;DHT22;7745;48.708;9.026;2023-10-13T00:42:22;17.00;99.90
15288;DHT22;7745;48.708;9.026;2023-10-13T00:45:10;17.00;99.90
15288;DHT22;7745;48.708;9.026;2023-10-13T00:47:42;17.00;99.90
15288;DHT22;7745;48.708;9.026;2023-10-13T00:50:16;16.90;99.90
15288;DHT22;7745;48.708;9.026;2023-10-13T00:52:46;16.90;99.90
15288;DHT22;7745;48.708;9.026;2023-10-13T00:55:18;16.80;99.90
15288;DHT22;7745;48.708;9.026;2023-10-13T00:57:50;16.90;99.90
15288;DHT22;7745;48.708;9.026;2023-10-13T01:00:19;16.90;99.90
15288;DHT22;7745;48.708;9.026;2023-10-13T01:02:45;16.90;99.90
15288;DHT22;7745;48.708;9.026;2023-10-13T01:05:20;16.90;99.90
15288;DHT22;7745;48.708;9.026;2023-10-13T01:07:47;16.70;99.90
15288;DHT22;7745;48.708;9.026;2023-10-13T01:10:18;16.60;99.90
15288;DHT22;7745;48.708;9.026;2023-10-13T01:12:45;16.50;99.90
15288;DHT22;7745;48.708;9.026;2023-10-13T01:15:13;16.40;99.90
15288;DHT22;7745;48.708;9.026;2023-10-13T01:17:43;16.30;99.90
15288;DHT22;7745;48.708;9.026;2023-10-13T01:20:12;16.20;99.90
15288;DHT22;7745;48.708;9.026;2023-10-13T01:22:44;16.10;99.90
15288;DHT22;7745;48.708;9.026;2023-10-13T01:25:16;16.00;99.90
15288;DHT22;7745;48.708;9.026;2023-10-13T01:27:44;15.90;99.90
15288;DHT22;7745;48.708;9.026;2023-10-13T01:30:14;15.90;99.90
15288;DHT22;7745;48.708;9.026;2023-10-13T01:32:48;15.80;99.90
15288;DHT22;7745;48.708;9.026;2023-10-13T01:35:16;15.80;99.90
15288;DHT22;7745;48.708;9.026;2023-10-13T01:37:44;15.70;99.90
15288;DHT22;7745;48.708;9.026;2023-10-13T01:40:12;15.60;99.90
15288;DHT22;7745;48.708;9.026;2023-10-13T01:42:39;15.50;99.90
15288;DHT22;7745;48.708;9.026;2023-10-13T01:45:06;15.50;99.90
15288;DHT22;7745;48.708;9.026;2023-10-13T01:47:32;15.40;99.90
15288;DHT22;7745;48.708;9.026;2023-10-13T01:49:59;15.30;99.90
15288;DHT22;7745;48.708;9.026;2023-10-13T01:52:32;15.30;99.90
15288;DHT22;7745;48.708;9.026;2023-10-13T01:54:59;15.20;99.90
15288;DHT22;7745;48.708;9.026;2023-10-13T01:57:26;15.30;99.90
15288;DHT22;7745;48.708;9.026;2023-10-13T01:59:55;15.10;99.90
15288;DHT22;7745;48.708;9.026;2023-10-13T02:02:21;15.10;99.90
15288;DHT22;7745;48.708;9.026;2023-10-13T02:04:54;15.00;99.90
15288;DHT22;7745;48.708;9.026;2023-10-13T02:07:22;15.00;99.90
15288;DHT22;7745;48.708;9.026;2023-10-13T02:09:55;15.00;99.90
15288;DHT22;7745;48.708;9.026;2023-10-13T02:12:21;14.90;99.90
15288;DHT22;7745;48.708;9.026;2023-10-13T02:14:51;14.90;99.90
15288;DHT22;7745;48.708;9.026;2023-10-13T02:17:19;15.00;99.90
15288;DHT22;7745;48.708;9.026;2023-10-13T02:19:47;14.80;99.90
15288;DHT22;7745;48.708;9.026;2023-10-13T02:22:14;14.80;99.90
15288;DHT22;7745;48.708;9.026;2023-10-13T02:24:53;14.80;99.90
15288;DHT22;7745;48.708;9.026;2023-10-13T02:27:23;14.70;99.90
15288;DHT22;7745;48.708;9.026;2023-10-13T02:29:50;14.80;99.90
15288;DHT22;7745;48.708;9.026;2023-10-13T02:32:25;14.70;99.90
15288;DHT22;7745;48.708;9.026;2023-10-13T02:34:52;14.70;99.90
15288;DHT22;7745;48.708;9.026;2023-10-13T02:37:23;14.70;99.90
15288;DHT22;7745;48.708;9.026;2023-10-13T02:39:49;14.60;99.90
15288;DHT22;7745;48.708;9.026;2023-10-13T02:42:16;14.70;99.90
15288;DHT22;7745;48.708;9.026;2023-10-13T02:44:48;14.70;99.90
15288;DHT22;7745;48.708;9.026;2023-10-13T02:47:16;14.70;99.90
15288;DHT22;7745;48.708;9.026;2023-10-13T02:49:45;14.60;99.90
15288;DHT22;7745;48.708;9.026;2023-10-13T02:52:13;14.70;99.90
15288;DHT22;7745;48.708;9.026;2023-10-13T02:54:39;14.70;99.90
15288;DHT22;7745;48.708;9.026;2023-10-13T02:57:12;14.70;99.90
15288;DHT22;7745;48.708;9.026;2023-10-13T02:59:38;14.70;99.90
15288;DHT22;7745;48.708;9.026;2023-10-13T03:02:12;14.70;99.90
15288;DHT22;7745;48.708;9.026;2023-10-13T03:04:46;14.70;99.90
15288;DHT22;7745;48.708;9.026;2023-10-13T03:07:13;14.70;99.90
15288;DHT22;7745;48.708;9.026;2023-10-13T03:09:41;14.60;99.90
15288;DHT22;7745;48.708;9.026;2023-10-13T03:12:16;14.50;99.90
15288;DHT22;7745;48.708;9.026;2023-10-13T03:14:41;14.40;99.90
15288;DHT22;7745;48.708;9.026;2023-10-13T03:17:13;14.40;99.90
15288;DHT22;7745;48.708;9.026;2023-10-13T03:19:42;14.40;99.90
15288;DHT22;7745;48.708;9.026;2023-10-13T03:22:13;14.20;99.90
15288;DHT22;7745;48.708;9.026;2023-10-13T03:24:42;14.20;99.90
15288;DHT22;7745;48.708;9.026;2023-10-13T03:27:12;14.20;99.90
15288;DHT22;7745;48.708;9.026;2023-10-13T03:29:43;14.20;99.90
15288;DHT22;7745;48.708;9.026;2023-10-13T03:32:10;14.20;99.90
15288;DHT22;7745;48.708;9.026;2023-10-13T03:34:41;14.30;99.90
15288;DHT22;7745;48.708;9.026;2023-10-13T03:37:17;14.40;99.90
15288;DHT22;7745;48.708;9.026;2023-10-13T03:39:50;14.20;99.90
15288;DHT22;7745;48.708;9.026;2023-10-13T03:42:17;14.20;99.90
15288;DHT22;7745;48.708;9.026;2023-10-13T03:44:45;14.20;99.90
15288;DHT22;7745;48.708;9.026;2023-10-13T03:47:13;14.30;99.90
15288;DHT22;7745;48.708;9.026;2023-10-13T03:49:52;14.40;99.90
15288;DHT22;7745;48.708;9.026;2023-10-13T03:52:40;14.40;99.90
15288;DHT22;7745;48.708;9.026;2023-10-13T03:55:07;14.50;99.90
15288;DHT22;7745;48.708;9.026;2023-10-13T03:57:42;14.50;99.90
15288;DHT22;7745;48.708;9.026;2023-10-13T04:00:12;14.50;99.90
15288;DHT22;7745;48.708;9.026;2023-10-13T04:02:47;14.60;99.90
15288;DHT22;7745;48.708;9.026;2023-10-13T04:05:19;14.60;99.90
15288;DHT22;7745;48.708;9.026;2023-10-13T04:08:03;14.60;99.90
15288;DHT22;7745;48.708;9.026;2023-10-13T04:10:48;14.60;99.90
15288;DHT22;7745;48.708;9.026;2023-10-13T04:13:32;14.60;99.90
15288;DHT22;7745;48.708;9.026;2023-10-13T04:16:31;14.60;99.90
15288;DHT22;7745;48.708;9.026;2023-10-13T04:19:16;14.60;99.90
15288;DHT22;7745;48.708;9.026;2023-10-13T04:21:49;14.50;99.90
15288;DHT22;7745;48.708;9.026;2023-10-13T04:24:27;14.60;99.90
15288;DHT22;7745;48.708;9.026;2023-10-13T04:27:08;14.50;99.90
15288;DHT22;7745;48.708;9.026;2023-10-13T04:29:52;14.50;99.90
15288;DHT22;7745;48.708;9.026;2023-10-13T04:32:36;14.50;99.90
15288;DHT22;7745;48.708;9.026;2023-10-13T04:35:04;14.50;99.90
15288;DHT22;7745;48.708;9.026;2023-10-13T04:37:36;14.40;99.90
15288;DHT22;7745;48.708;9.026;2023-10-13T04:40:18;14.30;99.90
15288;DHT22;7745;48.708;9.026;2023-10-13T04:42:50;14.20;99.90
15288;DHT22;7745;48.708;9.026;2023-10-13T04:45:17;14.20;99.90
15288;DHT22;7745;48.708;9.026;2023-10-13T04:48:10;14.10;99.90
15288;DHT22;7745;48.708;9.026;2023-10-13T04:50:45;14.10;99.90
15288;DHT22;7745;48.708;9.026;2023-10-13T04:53:13;14.10;99.90
15288;DHT22;7745;48.708;9.026;2023-10-13T04:56:01;14.00;99.90
15288;DHT22;7745;48.708;9.026;2023-10-13T04:58:54;14.00;99.90
15288;DHT22;7745;48.708;9.026;2023-10-13T05:01:38;14.00;99.90
15288;DHT22;7745;48.708;9.026;2023-10-13T05:04:26;14.00;99.90
15288;DHT22;7745;48.708;9.026;2023-10-13T05:07:04;14.10;99.90
15288;DHT22;7745;48.708;9.026;2023-10-13T05:09:48;14.20;99.90
15288;DHT22;7745;48.708;9.026;2023-10-13T05:12:34;14.30;99.90
15288;DHT22;7745;48.708;9.026;2023-10-13T05:15:19;14.40;99.90
15288;DHT22;7745;48.708;9.026;2023-10-13T05:18:04;14.50;99.90
15288;DHT22;7745;48.708;9.026;2023-10-13T05:20:55;14.50;99.90
15288;DHT22;7745;48.708;9.026;2023-10-13T05:23:39;14.60;99.90
15288;DHT22;7745;48.708;9.026;2023-10-13T05:26:22;14.70;99.90
15288;DHT22;7745;48.708;9.026;2023-10-13T05:29:08;14.80;99.90
15288;DHT22;7745;48.708;9.026;2023-10-13T05:31:52;14.80;99.90
15288;DHT22;7745;48.708;9.026;2023-10-13T05:34:36;14.90;99.90
15288;DHT22;7745;48.708;9.026;2023-10-13T05:37:21;14.90;99.90
15288;DHT22;7745;48.708;9.026;2023-10-13T05:40:07;15.00;99.90
15288;DHT22;7745;48.708;9.026;2023-10-13T05:42:51;15.00;99.90
15288;DHT22;7745;48.708;9.026;2023-10-13T05:45:38;15.00;99.90
15288;DHT22;7745;48.708;9.026;2023-10-13T05:48:26;14.90;99.90
15288;DHT22;7745;48.708;9.026;2023-10-13T05:51:08;15.00;99.90
15288;DHT22;7745;48.708;9.026;2023-10-13T05:53:52;15.00;99.90
15288;DHT22;7745;48.708;9.026;2023-10-13T05:56:36;15.10;99.90
15288;DHT22;7745;48.708;9.026;2023-10-13T05:59:20;15.20;99.90
15288;DHT22;7745;48.708;9.026;2023-10-13T06:02:15;15.20;99.90
15288;DHT22;7745;48.708;9.026;2023-10-13T06:05:01;15.30;99.90
15288;DHT22;7745;48.708;9.026;2023-10-13T06:07:46;15.30;99.90
15288;DHT22;7745;48.708;9.026;2023-10-13T06:10:30;15.50;99.90
15288;DHT22;7745;48.708;9.026;2023-10-13T06:13:14;15.50;99.90
15288;DHT22;7745;48.708;9.026;2023-10-13T06:15:58;15.60;99.90
15288;DHT22;7745;48.708;9.026;2023-10-13T06:18:44;15.60;99.90
15288;DHT22;7745;48.708;9.026;2023-10-13T06:21:28;15.40;99.90
15288;DHT22;7745;48.708;9.026;2023-10-13T06:24:18;15.40;99.90
15288;DHT22;7745;48.708;9.026;2023-10-13T06:27:02;15.30;99.90
15288;DHT22;7745;48.708;9.026;2023-10-13T06:29:46;15.20;99.90
15288;DHT22;7745;48.708;9.026;2023-10-13T06:32:14;15.20;99.90
15288;DHT22;7745;48.708;9.026;2023-10-13T06:34:43;15.20;99.90
15288;DHT22;7745;48.708;9.026;2023-10-13T06:37:11;15.10;99.90
15288;DHT22;7745;48.708;9.026;2023-10-13T06:39:49;15.00;99.90
15288;DHT22;7745;48.708;9.026;2023-10-13T06:42:16;14.90;99.90
15288;DHT22;7745;48.708;9.026;2023-10-13T06:44:45;14.90;99.90
15288;DHT22;7745;48.708;9.026;2023-10-13T06:47:12;14.90;99.90
15288;DHT22;7745;48.708;9.026;2023-10-13T06:49:39;14.90;99.90
15288;DHT22;7745;48.708;9.026;2023-10-13T06:52:10;14.90;99.90
15288;DHT22;7745;48.708;9.026;2023-10-13T06:54:37;15.00;99.90
15288;DHT22;7745;48.708;9.026;2023-10-13T06:57:05;15.10;99.90
15288;DHT22;7745;48.708;9.026;2023-10-13T06:59:32;15.20;99.90
15288;DHT22;7745;48.708;9.026;2023-10-13T07:02:02;15.40;99.90
15288;DHT22;7745;48.708;9.026;2023-10-13T07:04:31;15.40;99.90
15288;DHT22;7745;48.708;9.026;2023-10-13T07:06:58;15.40;99.90
15288;DHT22;7745;48.708;9.026;2023-10-13T07:09:33;15.60;99.90
15288;DHT22;7745;48.708;9.026;2023-10-13T07:12:06;15.70;99.90
15288;DHT22;7745;48.708;9.026;2023-10-13T07:14:45;15.60;99.90
15288;DHT22;7745;48.708;9.026;2023-10-13T07:17:17;15.70;99.90
15288;DHT22;7745;48.708;9.026;2023-10-13T07:19:49;15.90;99.90
15288;DHT22;7745;48.708;9.026;2023-10-13T07:22:20;15.90;99.90
15288;DHT22;7745;48.708;9.026;2023-10-13T07:24:49;16.10;99.90
15288;DHT22;7745;48.708;9.026;2023-10-13T07:27:16;16.20;99.90
15288;DHT22;7745;48.708;9.026;2023-10-13T07:29:49;16.40;99.90
15288;DHT22;7745;48.708;9.026;2023-10-13T07:32:22;16.80;99.90
15288;DHT22;7745;48.708;9.026;2023-10-13T07:34:52;16.90;99.90
15288;DHT22;7745;48.708;9.026;2023-10-13T07:37:21;17.00;99.90
15288;DHT22;7745;48.708;9.026;2023-10-13T07:39:52;16.90;99.90
15288;DHT22;7745;48.708;9.026;2023-10-13T07:42:23;17.10;99.90
15288;DHT22;7745;48.708;9.026;2023-10-13T07:44:56;17.20;99.90
15288;DHT22;7745;48.708;9.026;2023-10-13T07:47:22;17.30;99.90
15288;DHT22;7745;48.708;9.026;2023-10-13T07:49:52;17.30;99.90
15288;DHT22;7745;48.708;9.026;2023-10-13T07:52:22;17.50;99.90
15288;DHT22;7745;48.708;9.026;2023-10-13T07:55:03;17.50;99.90
15288;DHT22;7745;48.708;9.026;2023-10-13T07:57:39;17.60;99.90
15288;DHT22;7745;48.708;9.026;2023-10-13T08:00:19;17.80;99.90
15288;DHT22;7745;48.708;9.026;2023-10-13T08:03:00;17.80;99.90
15288;DHT22;7745;48.708;9.026;2023-10-13T08:05:43;17.80;99.90
15288;DHT22;7745;48.708;9.026;2023-10-13T08:08:23;17.80;99.90
15288;DHT22;7745;48.708;9.026;2023-10-13T08:10:53;17.80;99.90
15288;DHT22;7745;48.708;9.026;2023-10-13T08:13:26;17.90;99.90
15288;DHT22;7745;48.708;9.026;2023-10-13T08:15:54;17.90;99.90
15288;DHT22;7745;48.708;9.026;2023-10-13T08:18:26;18.00;99.90
15288;DHT22;7745;48.708;9.026;2023-10-13T08:20:57;18.10;99.90
15288;DHT22;7745;48.708;9.026;2023-10-13T08:23:28;18.20;99.90
15288;DHT22;7745;48.708;9.026;2023-10-13T08:26:23;18.20;99.90
15288;DHT22;7745;48.708;9.026;2023-10-13T08:29:04;18.40;99.90
15288;DHT22;7745;48.708;9.026;2023-10-13T08:31:56;18.40;99.90
15288;DHT22;7745;48.708;9.026;2023-10-13T08:34:41;18.40;99.90
15288;DHT22;7745;48.708;9.026;2023-10-13T08:37:22;18.60;99.90
15288;DHT22;7745;48.708;9.026;2023-10-13T08:39:55;18.70;99.90
15288;DHT22;7745;48.708;9.026;2023-10-13T08:42:47;18.80;99.90
15288;DHT22;7745;48.708;9.026;2023-10-13T08:45:41;19.10;99.90
15288;DHT22;7745;48.708;9.026;2023-10-13T08:48:24;19.30;99.90
15288;DHT22;7745;48.708;9.026;2023-10-13T08:50:57;19.50;99.90
15288;DHT22;7745;48.708;9.026;2023-10-13T08:53:32;19.60;99.90
15288;DHT22;7745;48.708;9.026;2023-10-13T08:56:10;19.50;99.90
15288;DHT22;7745;48.708;9.026;2023-10-13T08:58:42;19.80;99.90
15288;DHT22;7745;48.708;9.026;2023-10-13T09:01:36;20.00;99.90
15288;DHT22;7745;48.708;9.026;2023-10-13T09:04:12;19.90;99.90
15288;DHT22;7745;48.708;9.026;2023-10-13T09:06:49;20.20;99.90
15288;DHT22;7745;48.708;9.026;2023-10-13T09:09:45;20.40;99.90
15288;DHT22;7745;48.708;9.026;2023-10-13T09:12:38;20.30;99.90
15288;DHT22;7745;48.708;9.026;2023-10-13T09:15:30;20.50;99.90
15288;DHT22;7745;48.708;9.026;2023-10-13T09:18:11;20.50;99.90
15288;DHT22;7745;48.708;9.026;2023-10-13T09:20:41;20.70;99.90
15288;DHT22;7745;48.708;9.026;2023-10-13T09:23:10;20.80;99.90
15288;DHT22;7745;48.708;9.026;2023-10-13T09:25:39;21.00;99.90
15288;DHT22;7745;48.708;9.026;2023-10-13T09:28:19;21.00;99.90
15288;DHT22;7745;48.708;9.026;2023-10-13T09:30:53;21.10;99.90
15288;DHT22;7745;48.708;9.026;2023-10-13T09:33:23;21.10;99.90
15288;DHT22;7745;48.708;9.026;2023-10-13T09:35:58;21.00;99.90
15288;DHT22;7745;48.708;9.026;2023-10-13T09:38:25;21.30;99.90
15288;DHT22;7745;48.708;9.026;2023-10-13T09:40:53;21.30;99.90
15288;DHT22;7745;48.708;9.026;2023-10-13T09:43:23;21.20;99.90
15288;DHT22;7745;48.708;9.026;2023-10-13T09:45:57;21.50;99.90
15288;DHT22;7745;48.708;9.026;2023-10-13T09:48:32;21.50;99.90
15288;DHT22;7745;48.708;9.026;2023-10-13T09:51:01;21.60;99.90
15288;DHT22;7745;48.708;9.026;2023-10-13T09:53:30;21.70;99.90
15288;DHT22;7745;48.708;9.026;2023-10-13T09:56:03;21.60;99.90
15288;DHT22;7745;48.708;9.026;2023-10-13T09:58:42;22.00;99.90
15288;DHT22;7745;48.708;9.026;2023-10-13T10:01:17;22.00;99.90
15288;DHT22;7745;48.708;9.026;2023-10-13T10:03:47;22.30;99.90
15288;DHT22;7745;48.708;9.026;2023-10-13T10:06:22;22.30;99.90
15288;DHT22;7745;48.708;9.026;2023-10-13T10:09:05;22.40;99.90
15288;DHT22;7745;48.708;9.026;2023-10-13T10:12:06;22.40;99.90
15288;DHT22;7745;48.708;9.026;2023-10-13T10:14:49;22.60;99.90
15288;DHT22;7745;48.708;9.026;2023-10-13T10:17:23;22.80;99.90
15288;DHT22;7745;48.708;9.026;2023-10-13T10:19:56;22.90;99.90
15288;DHT22;7745;48.708;9.026;2023-10-13T10:22:27;23.10;99.90
15288;DHT22;7745;48.708;9.026;2023-10-13T10:24:57;23.10;99.90
15288;DHT22;7745;48.708;9.026;2023-10-13T10:27:25;23.30;99.90
15288;DHT22;7745;48.708;9.026;2023-10-13T10:29:55;23.40;99.90
15288;DHT22;7745;48.708;9.026;2023-10-13T10:32:33;23.30;99.90
15288;DHT22;7745;48.708;9.026;2023-10-13T10:35:05;23.30;99.90
15288;DHT22;7745;48.708;9.026;2023-10-13T10:37:34;23.30;99.90
15288;DHT22;7745;48.708;9.026;2023-10-13T10:40:01;23.30;99.90
15288;DHT22;7745;48.708;9.026;2023-10-13T10:42:34;23.40;99.90
15288;DHT22;7745;48.708;9.026;2023-10-13T10:45:01;23.30;99.90
15288;DHT22;7745;48.708;9.026;2023-10-13T10:47:36;23.40;99.90
15288;DHT22;7745;48.708;9.026;2023-10-13T10:50:04;23.50;99.90
15288;DHT22;7745;48.708;9.026;2023-10-13T10:52:43;23.50;99.90
15288;DHT22;7745;48.708;9.026;2023-10-13T10:55:12;23.50;99.90
15288;DHT22;7745;48.708;9.026;2023-10-13T10:57:58;23.40;99.90
15288;DHT22;7745;48.708;9.026;2023-10-13T11:00:27;23.40;99.90
15288;DHT22;7745;48.708;9.026;2023-10-13T11:03:08;23.50;99.90
15288;DHT22;7745;48.708;9.026;2023-10-13T11:05:43;23.70;99.90
15288;DHT22;7745;48.708;9.026;2023-10-13T11:08:21;23.70;99.90
15288;DHT22;7745;48.708;9.026;2023-10-13T11:10:57;23.80;99.90
15288;DHT22;7745;48.708;9.026;2023-10-13T11:13:25;23.90;99.90
15288;DHT22;7745;48.708;9.026;2023-10-13T11:15:58;24.00;99.90
15288;DHT22;7745;48.708;9.026;2023-10-13T11:18:31;24.00;99.90
15288;DHT22;7745;48.708;9.026;2023-10-13T11:21:06;24.00;99.90
15288;DHT22;7745;48.708;9.026;2023-10-13T11:23:37;24.00;99.90
15288;DHT22;7745;48.708;9.026;2023-10-13T11:26:05;24.00;99.90
15288;DHT22;7745;48.708;9.026;2023-10-13T11:28:33;24.10;99.90
15288;DHT22;7745;48.708;9.026;2023-10-13T11:31:00;24.00;99.90
15288;DHT22;7745;48.708;9.026;2023-10-13T11:33:43;24.10;99.90
15288;DHT22;7745;48.708;9.026;2023-10-13T11:36:12;24.20;99.90
15288;DHT22;7745;48.708;9.026;2023-10-13T11:38:43;24.20;99.90
15288;DHT22;7745;48.708;9.026;2023-10-13T11:41:16;24.30;99.90
15288;DHT22;7745;48.708;9.026;2023-10-13T11:43:45;24.30;99.90
15288;DHT22;7745;48.708;9.026;2023-10-13T11:46:38;24.30;99.90
15288;DHT22;7745;48.708;9.026;2023-10-13T11:49:23;24.40;99.90
15288;DHT22;7745;48.708;9.026;2023-10-13T11:52:02;24.40;99.90
15288;DHT22;7745;48.708;9.026;2023-10-13T11:54:41;24.40;99.90
15288;DHT22;7745;48.708;9.026;2023-10-13T11:57:09;24.40;99.90
15288;DHT22;7745;48.708;9.026;2023-10-13T11:59:35;24.50;99.90
15288;DHT22;7745;48.708;9.026;2023-10-13T12:02:19;24.60;99.90
15288;DHT22;7745;48.708;9.026;2023-10-13T12:05:06;24.60;99.90
15288;DHT22;7745;48.708;9.026;2023-10-13T12:07:52;24.70;99.90
15288;DHT22;7745;48.708;9.026;2023-10-13T12:10:29;24.70;99.90
15288;DHT22;7745;48.708;9.026;2023-10-13T12:13:14;24.60;99.90
15288;DHT22;7745;48.708;9.026;2023-10-13T12:15:42;24.80;99.90
15288;DHT22;7745;48.708;9.026;2023-10-13T12:18:17;24.70;99.90
15288;DHT22;7745;48.708;9.026;2023-10-13T12:20:46;24.70;99.90
15288;DHT22;7745;48.708;9.026;2023-10-13T12:23:13;24.80;99.90
15288;DHT22;7745;48.708;9.026;2023-10-13T12:25:46;24.90;99.90
15288;DHT22;7745;48.708;9.026;2023-10-13T12:28:25;24.80;99.90
15288;DHT22;7745;48.708;9.026;2023-10-13T12:30:55;24.90;99.90
15288;DHT22;7745;48.708;9.026;2023-10-13T12:33:24;25.00;99.90
15288;DHT22;7745;48.708;9.026;2023-10-13T12:35:57;24.90;99.90
15288;DHT22;7745;48.708;9.026;2023-10-13T12:38:33;25.00;99.90
15288;DHT22;7745;48.708;9.026;2023-10-13T12:41:38;24.90;99.90
15288;DHT22;7745;48.708;9.026;2023-10-13T12:44:22;25.10;99.90
15288;DHT22;7745;48.708;9.026;2023-10-13T12:47:06;25.10;99.90
15288;DHT22;7745;48.708;9.026;2023-10-13T12:49:50;25.30;99.90
15288;DHT22;7745;48.708;9.026;2023-10-13T12:52:34;25.30;99.90
15288;DHT22;7745;48.708;9.026;2023-10-13T12:55:01;25.50;99.90
15288;DHT22;7745;48.708;9.026;2023-10-13T12:57:33;25.60;99.90
15288;DHT22;7745;48.708;9.026;2023-10-13T13:00:00;25.60;99.90
15288;DHT22;7745;48.708;9.026;2023-10-13T13:02:41;25.60;99.90
15288;DHT22;7745;48.708;9.026;2023-10-13T13:05:08;25.60;99.90
15288;DHT22;7745;48.708;9.026;2023-10-13T13:07:39;25.60;99.90
15288;DHT22;7745;48.708;9.026;2023-10-13T13:10:18;25.70;99.90
15288;DHT22;7745;48.708;9.026;2023-10-13T13:12:45;25.60;99.90
15288;DHT22;7745;48.708;9.026;2023-10-13T13:15:11;25.70;99.90
15288;DHT22;7745;48.708;9.026;2023-10-13T13:17:40;25.80;99.90
15288;DHT22;7745;48.708;9.026;2023-10-13T13:20:08;25.80;99.90
15288;DHT22;7745;48.708;9.026;2023-10-13T13:22:53;25.90;99.90
15288;DHT22;7745;48.708;9.026;2023-10-13T13:25:20;25.80;99.90
15288;DHT22;7745;48.708;9.026;2023-10-13T13:27:53;25.90;99.90
15288;DHT22;7745;48.708;9.026;2023-10-13T13:30:19;25.90;99.90
15288;DHT22;7745;48.708;9.026;2023-10-13T13:32:47;26.00;99.90
15288;DHT22;7745;48.708;9.026;2023-10-13T13:35:14;26.00;99.90
15288;DHT22;7745;48.708;9.026;2023-10-13T13:37:44;26.10;99.90
15288;DHT22;7745;48.708;9.026;2023-10-13T13:40:13;26.20;99.90
15288;DHT22;7745;48.708;9.026;2023-10-13T13:42:47;26.20;99.90
15288;DHT22;7745;48.708;9.026;2023-10-13T13:45:14;26.10;99.90
15288;DHT22;7745;48.708;9.026;2023-10-13T13:47:48;26.10;99.90
15288;DHT22;7745;48.708;9.026;2023-10-13T13:50:19;26.10;99.90
15288;DHT22;7745;48.708;9.026;2023-10-13T13:52:50;26.10;99.90
15288;DHT22;7745;48.708;9.026;2023-10-13T13:55:19;26.00;99.90
15288;DHT22;7745;48.708;9.026;2023-10-13T13:57:47;26.00;99.90
15288;DHT22;7745;48.708;9.026;2023-10-13T14:00:16;25.90;99.90
15288;DHT22;7745;48.708;9.026;2023-10-13T14:02:48;25.90;99.90
15288;DHT22;7745;48.708;9.026;2023-10-13T14:05:15;26.00;99.90
15288;DHT22;7745;48.708;9.026;2023-10-13T14:07:43;25.80;99.90
15288;DHT22;7745;48.708;9.026;2023-10-13T14:10:15;25.80;99.90
15288;DHT22;7745;48.708;9.026;2023-10-13T14:13:01;25.90;99.90
15288;DHT22;7745;48.708;9.026;2023-10-13T14:15:33;25.80;99.90
15288;DHT22;7745;48.708;9.026;2023-10-13T14:18:07;25.80;99.90
15288;DHT22;7745;48.708;9.026;2023-10-13T14:20:40;25.80;99.90
15288;DHT22;7745;48.708;9.026;2023-10-13T14:23:07;25.80;99.90
15288;DHT22;7745;48.708;9.026;2023-10-13T14:25:37;25.70;99.90
15288;DHT22;7745;48.708;9.026;2023-10-13T14:28:06;25.70;99.90
15288;DHT22;7745;48.708;9.026;2023-10-13T14:30:33;25.70;99.90
15288;DHT22;7745;48.708;9.026;2023-10-13T14:33:00;25.60;99.90
15288;DHT22;7745;48.708;9.026;2023-10-13T14:35:26;25.70;99.90
15288;DHT22;7745;48.708;9.026;2023-10-13T14:37:54;25.70;99.90
15288;DHT22;7745;48.708;9.026;2023-10-13T14:40:21;25.70;99.90
15288;DHT22;7745;48.708;9.026;2023-10-13T14:42:48;25.70;99.90
15288;DHT22;7745;48.708;9.026;2023-10-13T14:45:16;25.70;99.90
15288;DHT22;7745;48.708;9.026;2023-10-13T14:47:43;25.70;99.90
15288;DHT22;7745;48.708;9.026;2023-10-13T14:50:11;25.60;99.90
15288;DHT22;7745;48.708;9.026;2023-10-13T14:52:45;25.60;99.90
15288;DHT22;7745;48.708;9.026;2023-10-13T14:55:12;25.60;99.90
15288;DHT22;7745;48.708;9.026;2023-10-13T14:57:46;25.50;99.90
15288;DHT22;7745;48.708;9.026;2023-10-13T15:00:17;25.50;99.90
15288;DHT22;7745;48.708;9.026;2023-10-13T15:02:51;25.50;99.90
15288;DHT22;7745;48.708;9.026;2023-10-13T15:05:18;25.50;99.90
15288;DHT22;7745;48.708;9.026;2023-10-13T15:07:45;25.50;99.90
15288;DHT22;7745;48.708;9.026;2023-10-13T15:10:13;25.50;99.90
15288;DHT22;7745;48.708;9.026;2023-10-13T15:12:41;25.40;99.90
15288;DHT22;7745;48.708;9.026;2023-10-13T15:15:08;25.40;99.90
15288;DHT22;7745;48.708;9.026;2023-10-13T15:17:40;25.40;99.90
15288;DHT22;7745;48.708;9.026;2023-10-13T15:20:07;25.40;99.90
15288;DHT22;7745;48.708;9.026;2023-10-13T15:22:36;25.30;99.90
15288;DHT22;7745;48.708;9.026;2023-10-13T15:25:04;25.20;99.90
15288;DHT22;7745;48.708;9.026;2023-10-13T15:27:43;25.20;99.90
15288;DHT22;7745;48.708;9.026;2023-10-13T15:30:16;25.20;99.90
15288;DHT22;7745;48.708;9.026;2023-10-13T15:32:58;25.20;99.90
15288;DHT22;7745;48.708;9.026;2023-10-13T15:35:26;25.30;99.90
15288;DHT22;7745;48.708;9.026;2023-10-13T15:37:54;25.20;99.90
15288;DHT22;7745;48.708;9.026;2023-10-13T15:40:21;25.10;99.90
15288;DHT22;7745;48.708;9.026;2023-10-13T15:42:49;25.10;99.90
15288;DHT22;7745;48.708;9.026;2023-10-13T15:45:16;25.00;99.90
15288;DHT22;7745;48.708;9.026;2023-10-13T15:47:44;25.00;99.90
15288;DHT22;7745;48.708;9.026;2023-10-13T15:50:13;25.00;99.90
15288;DHT22;7745;48.708;9.026;2023-10-13T15:52:44;24.90;99.90
15288;DHT22;7745;48.708;9.026;2023-10-13T15:55:13;24.90;99.90
15288;DHT22;7745;48.708;9.026;2023-10-13T15:57:40;24.80;99.90
15288;DHT22;7745;48.708;9.026;2023-10-13T16:00:09;24.80;99.90
15288;DHT22;7745;48.708;9.026;2023-10-13T16:02:50;24.70;99.90
15288;DHT22;7745;48.708;9.026;2023-10-13T16:05:18;24.80;99.90
15288;DHT22;7745;48.708;9.026;2023-10-13T16:07:49;24.60;99.90
15288;DHT22;7745;48.708;9.026;2023-10-13T16:10:16;24.60;99.90
15288;DHT22;7745;48.708;9.026;2023-10-13T16:12:43;24.50;99.90
15288;DHT22;7745;48.708;9.026;2023-10-13T16:15:11;24.30;99.90
15288;DHT22;7745;48.708;9.026;2023-10-13T16:17:39;24.30;99.90
15288;DHT22;7745;48.708;9.026;2023-10-13T16:20:08;24.20;99.90
15288;DHT22;7745;48.708;9.026;2023-10-13T16:22:43;24.10;99.90
15288;DHT22;7745;48.708;9.026;2023-10-13T16:25:11;23.90;99.90
15288;DHT22;7745;48.708;9.026;2023-10-13T16:27:39;23.80;99.90